createdAt,value
2023-11-18T00:00:00.538Z,8.59
2023-11-18T00:02:27.176Z,8.59
2023-11-18T00:04:53.994Z,8.56
2023-11-18T00:07:20.468Z,8.56
2023-11-18T00:09:46.902Z,8.60
2023-11-18T00:12:13.299Z,8.61
2023-11-18T00:14:42.959Z,8.72
2023-11-18T00:17:09.491Z,8.76
2023-11-18T00:19:36.019Z,8.77
2023-11-18T00:22:05.539Z,8.67
2023-11-18T00:24:31.949Z,8.53
2023-11-18T00:26:58.710Z,8.51
2023-11-18T00:29:25.453Z,8.56
2023-11-18T00:31:51.989Z,8.66
2023-11-18T00:34:18.912Z,8.71
2023-11-18T00:36:47.688Z,8.56
2023-11-18T00:39:17.080Z,8.65
2023-11-18T00:41:43.537Z,8.64
2023-11-18T00:44:10.006Z,8.49
2023-11-18T00:46:36.501Z,8.44
2023-11-18T00:49:03.209Z,8.43
2023-11-18T00:51:29.776Z,8.49
2023-11-18T00:53:58.693Z,8.55
2023-11-18T00:56:25.304Z,8.51
2023-11-18T00:58:52.427Z,8.42
2023-11-18T01:01:19.173Z,8.40
2023-11-18T01:03:45.798Z,8.39
2023-11-18T01:06:12.666Z,8.39
2023-11-18T01:08:39.364Z,8.34
2023-11-18T01:11:05.956Z,8.25
2023-11-18T01:13:34.968Z,8.24
2023-11-18T01:16:04.369Z,8.29
2023-11-18T01:18:31.063Z,8.20
2023-11-18T01:20:58.733Z,8.28
2023-11-18T01:23:27.334Z,8.25
2023-11-18T01:25:53.984Z,8.20
2023-11-18T01:28:20.710Z,8.15
2023-11-18T01:30:47.319Z,8.01
2023-11-18T01:33:14.178Z,7.79
2023-11-18T01:35:43.378Z,7.74
2023-11-18T01:38:10.043Z,7.66
2023-11-18T01:40:37.438Z,8.08
2023-11-18T01:43:04.094Z,7.92
2023-11-18T01:45:42.151Z,8.10
2023-11-18T01:48:09.488Z,8.07
2023-11-18T01:50:36.066Z,8.18
2023-11-18T01:53:03.183Z,8.07
2023-11-18T01:55:35.329Z,8.17
2023-11-18T01:58:01.917Z,8.29
2023-11-18T02:00:28.473Z,8.36
2023-11-18T02:02:55.457Z,8.38
2023-11-18T02:05:27.927Z,8.38
2023-11-18T02:07:54.401Z,8.33
2023-11-18T02:10:20.848Z,8.18
2023-11-18T02:12:47.453Z,8.16
2023-11-18T02:15:16.904Z,8.02
2023-11-18T02:17:43.546Z,7.94
2023-11-18T02:20:10.596Z,7.95
2023-11-18T02:22:37.093Z,7.97
2023-11-18T02:27:53.818Z,7.88
2023-11-18T02:30:41.694Z,7.82
2023-11-18T02:33:16.316Z,7.91
2023-11-18T02:35:43.848Z,7.77
2023-11-18T02:38:13.550Z,7.58
2023-11-18T02:40:40.447Z,7.68
2023-11-18T02:43:11.165Z,7.70
2023-11-18T02:45:43.825Z,7.76
2023-11-18T02:48:10.614Z,7.79
2023-11-18T02:50:37.674Z,7.78
2023-11-18T02:53:04.417Z,7.85
2023-11-18T02:55:34.903Z,7.78
2023-11-18T02:58:06.799Z,7.75
2023-11-18T03:00:33.660Z,7.72
2023-11-18T03:03:00.143Z,7.76
2023-11-18T03:05:26.729Z,7.63
2023-11-18T03:07:56.296Z,7.71
2023-11-18T03:10:23.261Z,7.84
2023-11-18T03:12:50.050Z,7.81
2023-11-18T03:15:17.486Z,7.72
2023-11-18T03:17:44.087Z,7.73
2023-11-18T03:20:10.789Z,7.78
2023-11-18T03:22:37.370Z,7.86
2023-11-18T03:25:04.074Z,7.77
2023-11-18T03:27:30.613Z,7.84
2023-11-18T03:29:57.417Z,7.85
2023-11-18T03:32:24.995Z,7.78
2023-11-18T03:34:51.671Z,7.75
2023-11-18T03:37:18.627Z,7.80
2023-11-18T03:39:45.192Z,7.77
2023-11-18T03:42:11.767Z,7.91
2023-11-18T03:44:38.436Z,7.89
2023-11-18T03:47:06.167Z,7.96
2023-11-18T03:49:37.105Z,7.84
2023-11-18T03:52:06.683Z,7.95
2023-11-18T03:54:33.276Z,7.90
2023-11-18T03:56:59.920Z,7.89
2023-11-18T03:59:26.525Z,7.91
2023-11-18T04:01:53.314Z,7.98
2023-11-18T04:04:20.055Z,8.05
2023-11-18T04:06:46.636Z,8.25
2023-11-18T04:09:13.471Z,8.47
2023-11-18T04:11:40.038Z,8.56
2023-11-18T04:14:10.499Z,8.59
2023-11-18T04:16:37.132Z,8.53
2023-11-18T04:19:03.581Z,8.59
2023-11-18T04:21:30.193Z,8.46
2023-11-18T04:23:56.591Z,8.34
2023-11-18T04:26:23.038Z,8.27
2023-11-18T04:28:49.498Z,8.06
2023-11-18T04:31:16.042Z,8.11
2023-11-18T04:33:42.485Z,8.30
2023-11-18T04:36:08.877Z,8.17
2023-11-18T04:38:35.311Z,8.09
2023-11-18T04:41:01.751Z,8.14
2023-11-18T04:43:35.036Z,8.11
2023-11-18T04:46:11.542Z,7.98
2023-11-18T04:48:40.771Z,8.09
2023-11-18T04:51:08.654Z,8.11
2023-11-18T04:53:35.139Z,8.13
2023-11-18T04:56:01.920Z,8.28
2023-11-18T04:58:28.378Z,8.30
2023-11-18T05:00:54.821Z,8.27
2023-11-18T05:03:21.527Z,8.30
2023-11-18T05:05:48.331Z,8.33
2023-11-18T05:08:18.878Z,8.33
2023-11-18T05:10:45.383Z,8.46
2023-11-18T05:13:11.799Z,8.40
2023-11-18T05:15:40.799Z,8.21
2023-11-18T05:18:07.894Z,8.22
2023-11-18T05:20:34.947Z,8.19
2023-11-18T05:23:01.669Z,8.10
2023-11-18T05:25:28.434Z,8.13
2023-11-18T05:27:57.174Z,8.22
2023-11-18T05:30:23.873Z,8.31
2023-11-18T05:32:50.520Z,8.41
2023-11-18T05:35:19.578Z,8.55
2023-11-18T05:37:46.147Z,8.60
2023-11-18T05:40:13.036Z,8.51
2023-11-18T05:42:40.480Z,8.60
2023-11-18T05:45:09.834Z,8.76
2023-11-18T05:47:37.630Z,8.69
2023-11-18T05:50:04.359Z,8.80
2023-11-18T05:52:31.172Z,8.78
2023-11-18T05:54:58.775Z,8.78
2023-11-18T05:57:25.299Z,8.82
2023-11-18T05:59:52.161Z,8.87
2023-11-18T06:02:18.764Z,8.72
2023-11-18T06:04:45.398Z,8.80
2023-11-18T06:07:20.083Z,8.91
2023-11-18T06:09:46.778Z,8.91
2023-11-18T06:12:13.440Z,8.85
2023-11-18T06:14:40.281Z,8.94
2023-11-18T06:17:07.243Z,8.88
2023-11-18T06:19:33.868Z,8.79
2023-11-18T06:22:00.411Z,8.73
2023-11-18T06:24:27.017Z,8.75
2023-11-18T06:26:53.630Z,8.57
2023-11-18T06:29:22.310Z,8.66
2023-11-18T06:31:49.029Z,8.65
2023-11-18T06:34:15.685Z,8.67
2023-11-18T06:36:42.275Z,8.78
2023-11-18T06:39:10.948Z,8.79
2023-11-18T06:41:37.694Z,8.76
2023-11-18T06:44:06.743Z,8.72
2023-11-18T06:46:33.404Z,8.56
2023-11-18T06:49:00.641Z,8.59
2023-11-18T06:51:27.782Z,8.38
2023-11-18T06:53:55.237Z,7.51
2023-11-18T06:56:21.949Z,7.77
2023-11-18T06:58:48.506Z,8.15
2023-11-18T07:01:15.242Z,8.00
2023-11-18T07:03:45.096Z,7.56
2023-11-18T07:06:11.797Z,7.10
2023-11-18T07:08:38.261Z,7.35
2023-11-18T07:11:04.713Z,7.78
2023-11-18T07:13:31.185Z,7.89
2023-11-18T07:15:57.612Z,8.22
2023-11-18T07:18:24.028Z,8.53
2023-11-18T07:20:50.446Z,8.10
2023-11-18T07:23:16.886Z,8.25
2023-11-18T07:25:43.379Z,8.47
2023-11-18T07:28:09.915Z,8.93
2023-11-18T07:30:36.520Z,9.09
2023-11-18T07:33:02.969Z,9.18
2023-11-18T07:35:29.665Z,8.57
2023-11-18T07:37:56.119Z,8.88
2023-11-18T07:40:22.532Z,9.29
2023-11-18T07:42:48.958Z,9.36
2023-11-18T07:45:15.482Z,9.42
2023-11-18T07:47:41.930Z,9.59
2023-11-18T07:50:08.413Z,9.71
2023-11-18T07:52:34.831Z,9.82
2023-11-18T07:55:01.221Z,9.80
2023-11-18T07:57:28.028Z,9.97
2023-11-18T07:59:54.624Z,10.10
2023-11-18T08:02:21.263Z,10.26
2023-11-18T08:04:48.108Z,10.27
2023-11-18T08:07:14.698Z,10.38
2023-11-18T08:09:41.347Z,10.14
2023-11-18T08:12:08.091Z,9.39
2023-11-18T08:14:34.682Z,9.38
2023-11-18T08:17:01.561Z,8.78
2023-11-18T08:19:28.204Z,9.09
2023-11-18T08:21:54.982Z,9.47
2023-11-18T08:24:23.865Z,9.82
2023-11-18T08:26:50.476Z,9.72
2023-11-18T08:29:17.830Z,9.68
2023-11-18T08:31:44.545Z,9.81
2023-11-18T08:34:11.227Z,9.80
2023-11-18T08:36:37.831Z,10.10
2023-11-18T08:39:04.404Z,9.96
2023-11-18T08:41:34.890Z,10.08
2023-11-18T08:44:13.677Z,9.88
2023-11-18T08:46:47.792Z,9.93
2023-11-18T08:49:14.325Z,9.69
2023-11-18T08:51:40.790Z,9.50
2023-11-18T08:54:07.198Z,9.29
2023-11-18T08:56:33.618Z,9.12
2023-11-18T08:59:00.372Z,9.15
2023-11-18T09:01:26.847Z,9.40
2023-11-18T09:03:54.028Z,9.27
2023-11-18T09:06:20.925Z,9.02
2023-11-18T09:08:50.417Z,9.33
2023-11-18T09:11:16.900Z,9.32
2023-11-18T09:13:43.465Z,9.69
2023-11-18T09:16:10.402Z,9.57
2023-11-18T09:18:40.481Z,9.65
2023-11-18T09:21:10.003Z,9.56
2023-11-18T09:23:36.806Z,9.45
2023-11-18T09:26:03.299Z,9.32
2023-11-18T09:28:29.809Z,9.40
2023-11-18T09:30:56.474Z,9.34
2023-11-18T09:33:23.062Z,9.06
2023-11-18T09:35:49.726Z,9.42
2023-11-18T09:38:16.174Z,9.52
2023-11-18T09:40:42.666Z,9.54
2023-11-18T09:43:09.796Z,9.72
2023-11-18T09:45:36.381Z,9.44
2023-11-18T09:48:03.083Z,9.41
2023-11-18T09:50:29.857Z,9.55
2023-11-18T09:52:56.577Z,9.36
2023-11-18T09:55:26.371Z,9.34
2023-11-18T09:57:54.785Z,9.58
2023-11-18T10:00:22.931Z,9.90
2023-11-18T10:02:49.794Z,9.76
2023-11-18T10:05:16.585Z,9.55
2023-11-18T10:07:43.542Z,9.68
2023-11-18T10:10:10.153Z,9.80
2023-11-18T10:12:36.776Z,9.48
2023-11-18T10:15:06.364Z,9.55
2023-11-18T10:17:32.974Z,9.77
2023-11-18T10:19:59.503Z,9.27
2023-11-18T10:22:25.910Z,9.36
2023-11-18T10:24:52.441Z,9.49
2023-11-18T10:27:18.882Z,9.31
2023-11-18T10:29:45.310Z,9.37
2023-11-18T10:32:11.936Z,8.94
2023-11-18T10:34:38.591Z,9.10
2023-11-18T10:37:05.087Z,9.42
2023-11-18T10:39:31.539Z,9.25
2023-11-18T10:42:01.001Z,9.50
2023-11-18T10:44:28.084Z,9.35
2023-11-18T10:46:54.621Z,9.66
2023-11-18T10:49:21.183Z,9.72
2023-11-18T10:51:47.584Z,9.95
2023-11-18T10:54:14.006Z,9.78
2023-11-18T10:56:40.768Z,9.85
2023-11-18T10:59:07.545Z,9.59
2023-11-18T11:01:34.239Z,9.66
2023-11-18T11:04:03.336Z,9.36
2023-11-18T11:06:31.115Z,9.68
2023-11-18T11:08:57.789Z,9.87
2023-11-18T11:11:24.245Z,9.93
2023-11-18T11:13:50.876Z,10.03
2023-11-18T11:16:17.483Z,9.93
2023-11-18T11:18:44.401Z,10.00
2023-11-18T11:21:10.989Z,10.02
2023-11-18T11:23:37.687Z,10.02
2023-11-18T11:26:04.302Z,9.92
2023-11-18T11:28:31.140Z,9.89
2023-11-18T11:31:00.580Z,9.73
2023-11-18T11:33:27.246Z,9.80
2023-11-18T11:35:53.802Z,9.98
2023-11-18T11:38:20.442Z,9.59
2023-11-18T11:40:47.048Z,9.71
2023-11-18T11:43:13.744Z,9.80
2023-11-18T11:45:40.491Z,10.04
2023-11-18T11:48:07.413Z,10.11
2023-11-18T11:50:34.440Z,9.67
2023-11-18T11:53:01.595Z,9.83
2023-11-18T11:55:29.307Z,10.23
2023-11-18T11:57:56.278Z,10.00
2023-11-18T12:00:23.108Z,10.28
2023-11-18T12:02:49.807Z,10.25
2023-11-18T12:05:16.583Z,10.59
2023-11-18T12:07:43.415Z,10.21
2023-11-18T12:10:09.977Z,10.41
2023-11-18T12:12:36.641Z,10.34
2023-11-18T12:15:05.785Z,10.17
2023-11-18T12:17:32.439Z,10.34
2023-11-18T12:19:59.535Z,10.00
2023-11-18T12:22:26.378Z,9.68
2023-11-18T12:24:55.222Z,9.71
2023-11-18T12:27:25.685Z,9.72
2023-11-18T12:29:52.253Z,9.24
2023-11-18T12:32:18.860Z,9.06
2023-11-18T12:34:45.326Z,9.47
2023-11-18T12:37:11.803Z,9.24
2023-11-18T12:39:38.704Z,9.72
2023-11-18T12:42:05.108Z,9.60
2023-11-18T12:44:31.530Z,9.78
2023-11-18T12:46:57.974Z,9.82
2023-11-18T12:49:24.696Z,10.13
2023-11-18T12:51:51.298Z,9.68
2023-11-18T12:54:17.721Z,9.64
2023-11-18T12:56:44.139Z,9.22
2023-11-18T12:59:10.604Z,9.69
2023-11-18T13:01:37.295Z,9.75
2023-11-18T13:04:04.022Z,9.30
2023-11-18T13:06:30.623Z,9.05
2023-11-18T13:08:57.022Z,9.59
2023-11-18T13:11:23.521Z,9.67
2023-11-18T13:13:50.015Z,9.68
2023-11-18T13:16:16.513Z,9.83
2023-11-18T13:18:43.045Z,9.74
2023-11-18T13:21:09.468Z,8.78
2023-11-18T13:23:36.026Z,8.48
2023-11-18T13:26:02.444Z,8.37
2023-11-18T13:28:28.928Z,8.40
2023-11-18T13:30:55.359Z,8.36
2023-11-18T13:33:22.002Z,8.86
2023-11-18T13:35:51.216Z,8.86
2023-11-18T13:38:18.403Z,9.34
2023-11-18T13:40:45.006Z,9.54
2023-11-18T13:43:11.542Z,9.85
2023-11-18T13:45:38.816Z,10.15
2023-11-18T13:48:05.690Z,10.22
2023-11-18T13:50:32.354Z,9.84
2023-11-18T13:52:58.829Z,9.72
2023-11-18T13:55:25.339Z,9.17
2023-11-18T13:57:51.732Z,9.00
2023-11-18T14:00:18.145Z,9.40
2023-11-18T14:02:44.782Z,9.41
2023-11-18T14:05:11.434Z,9.20
2023-11-18T14:07:37.838Z,9.36
2023-11-18T14:10:04.252Z,8.97
2023-11-18T14:12:30.710Z,8.86
2023-11-18T14:14:57.175Z,8.71
2023-11-18T14:17:23.696Z,9.21
2023-11-18T14:19:50.248Z,8.78
2023-11-18T14:22:16.670Z,9.23
2023-11-18T14:24:43.073Z,8.74
2023-11-18T14:27:09.556Z,8.56
2023-11-18T14:29:36.026Z,8.90
2023-11-18T14:32:02.617Z,8.68
2023-11-18T14:34:31.441Z,8.70
2023-11-18T14:36:57.839Z,9.18
2023-11-18T14:39:24.439Z,9.38
2023-11-18T14:41:50.929Z,9.61
2023-11-18T14:44:17.446Z,9.72
2023-11-18T14:46:43.953Z,9.63
2023-11-18T14:49:10.426Z,9.61
2023-11-18T14:51:36.982Z,9.99
2023-11-18T14:54:03.810Z,9.79
2023-11-18T14:56:30.416Z,9.94
2023-11-18T14:58:56.994Z,9.40
2023-11-18T15:01:23.631Z,9.19
2023-11-18T15:03:50.622Z,8.90
2023-11-18T15:06:17.325Z,8.98
2023-11-18T15:08:46.481Z,9.00
2023-11-18T15:11:13.318Z,9.41
2023-11-18T15:13:40.265Z,9.62
2023-11-18T15:16:06.849Z,9.75
2023-11-18T15:18:33.818Z,9.61
2023-11-18T15:21:00.395Z,9.44
2023-11-18T15:23:27.278Z,9.39
2023-11-18T15:25:53.986Z,9.14
2023-11-18T15:28:20.580Z,9.23
2023-11-18T15:30:47.234Z,8.96
2023-11-18T15:33:14.001Z,8.87
2023-11-18T15:35:40.933Z,8.84
2023-11-18T15:38:07.531Z,8.56
2023-11-18T15:40:34.120Z,8.85
2023-11-18T15:43:00.764Z,9.07
2023-11-18T15:45:27.559Z,8.85
2023-11-18T15:47:54.360Z,9.04
2023-11-18T15:50:20.944Z,9.37
2023-11-18T15:52:47.508Z,9.47
2023-11-18T15:55:14.114Z,9.55
2023-11-18T15:57:40.662Z,8.94
2023-11-18T16:00:07.254Z,9.03
2023-11-18T16:02:33.912Z,9.29
2023-11-18T16:05:00.622Z,9.47
2023-11-18T16:07:27.228Z,8.92
2023-11-18T16:10:00.058Z,9.09
2023-11-18T16:12:26.627Z,9.36
2023-11-18T16:14:53.428Z,9.45
2023-11-18T16:17:20.043Z,9.60
2023-11-18T16:19:46.681Z,9.90
2023-11-18T16:22:13.329Z,9.15
2023-11-18T16:24:39.982Z,8.80
2023-11-18T16:27:07.328Z,8.71
2023-11-18T16:29:36.916Z,9.08
2023-11-18T16:32:03.607Z,9.00
2023-11-18T16:34:30.305Z,9.61
2023-11-18T16:36:57.260Z,9.73
2023-11-18T16:39:23.930Z,9.66
2023-11-18T16:41:50.551Z,9.62
2023-11-18T16:44:17.029Z,9.97
2023-11-18T16:46:43.474Z,10.02
2023-11-18T16:49:09.978Z,9.79
2023-11-18T16:51:36.429Z,9.85
2023-11-18T16:54:02.842Z,9.91
2023-11-18T16:56:29.338Z,9.41
2023-11-18T16:58:55.796Z,9.11
2023-11-18T17:01:22.221Z,9.37
2023-11-18T17:03:51.832Z,9.74
2023-11-18T17:06:18.303Z,9.68
2023-11-18T17:08:44.740Z,9.77
2023-11-18T17:11:11.260Z,9.50
2023-11-18T17:13:37.708Z,9.79
2023-11-18T17:16:04.193Z,9.92
2023-11-18T17:18:30.759Z,9.76
2023-11-18T17:20:57.266Z,9.98
2023-11-18T17:23:23.786Z,10.11
2023-11-18T17:25:50.377Z,10.08
2023-11-18T17:28:17.982Z,9.45
2023-11-18T17:30:44.554Z,9.83
2023-11-18T17:33:11.079Z,9.96
2023-11-18T17:35:37.636Z,10.14
2023-11-18T17:38:04.111Z,9.95
2023-11-18T17:40:30.791Z,10.20
2023-11-18T17:42:59.652Z,9.90
2023-11-18T17:45:26.220Z,10.10
2023-11-18T17:47:52.804Z,9.93
2023-11-18T17:50:23.007Z,9.30
2023-11-18T17:52:52.407Z,9.60
2023-11-18T17:55:19.378Z,9.40
2023-11-18T17:57:46.256Z,8.60
2023-11-18T18:00:12.961Z,8.62
2023-11-18T18:02:39.845Z,8.89
2023-11-18T18:05:06.498Z,8.90
2023-11-18T18:07:33.139Z,8.90
2023-11-18T18:09:59.742Z,9.13
2023-11-18T18:12:26.357Z,9.62
2023-11-18T18:14:53.441Z,9.56
2023-11-18T18:17:20.060Z,9.45
2023-11-18T18:19:46.643Z,9.39
2023-11-18T18:25:17.759Z,10.25
2023-11-18T18:27:44.385Z,10.57
2023-11-18T18:30:10.950Z,10.65
2023-11-18T18:32:37.727Z,10.57
2023-11-18T18:35:04.532Z,10.80
2023-11-18T18:37:31.224Z,10.76
2023-11-18T18:39:57.881Z,10.86
2023-11-18T18:42:24.605Z,9.60
2023-11-18T18:44:51.187Z,10.12
2023-11-18T18:47:20.218Z,10.25
2023-11-18T18:49:48.316Z,9.84
2023-11-18T18:52:14.881Z,9.93
2023-11-18T18:54:41.528Z,9.27
2023-11-18T18:57:08.167Z,9.63
2023-11-18T18:59:34.678Z,9.74
2023-11-18T19:02:06.145Z,9.96
2023-11-18T19:04:32.919Z,9.88
2023-11-18T19:06:59.353Z,9.55
2023-11-18T19:09:28.790Z,9.41
2023-11-18T19:11:55.191Z,9.65
2023-11-18T19:14:24.691Z,9.59
2023-11-18T19:16:51.233Z,9.64
2023-11-18T19:19:17.787Z,9.90
2023-11-18T19:21:44.541Z,9.68
2023-11-18T19:24:10.984Z,9.73
2023-11-18T19:26:37.584Z,9.48
2023-11-18T19:29:04.103Z,9.71
2023-11-18T19:31:30.535Z,9.79
2023-11-18T19:33:57.008Z,10.04
2023-11-18T19:36:23.546Z,10.01
2023-11-18T19:38:50.083Z,10.29
2023-11-18T19:41:16.531Z,10.21
2023-11-18T19:43:43.165Z,10.18
2023-11-18T19:46:11.155Z,10.03
2023-11-18T19:48:37.814Z,9.79
2023-11-18T19:51:04.292Z,10.13
2023-11-18T19:53:30.788Z,9.83
2023-11-18T19:55:57.485Z,9.55
2023-11-18T19:58:24.107Z,9.54
2023-11-18T20:00:50.738Z,9.75
2023-11-18T20:03:17.326Z,9.54
2023-11-18T20:05:44.087Z,9.15
2023-11-18T20:08:10.747Z,9.42
2023-11-18T20:10:37.261Z,9.55
2023-11-18T20:13:03.712Z,9.56
2023-11-18T20:15:30.169Z,9.61
2023-11-18T20:17:56.711Z,9.40
2023-11-18T20:20:23.238Z,9.44
2023-11-18T20:22:54.904Z,9.36
2023-11-18T20:25:21.850Z,9.48
2023-11-18T20:27:48.460Z,9.62
2023-11-18T20:30:15.065Z,9.69
2023-11-18T20:32:41.542Z,9.66
2023-11-18T20:35:08.049Z,9.73
2023-11-18T20:37:34.508Z,10.02
2023-11-18T20:40:01.042Z,9.93
2023-11-18T20:42:27.752Z,9.97
2023-11-18T20:44:54.257Z,9.60
2023-11-18T20:47:20.770Z,9.77
2023-11-18T20:49:47.203Z,10.12
2023-11-18T20:52:13.653Z,10.25
2023-11-18T20:54:40.152Z,10.27
2023-11-18T20:57:06.596Z,10.24
2023-11-18T20:59:33.201Z,10.20
2023-11-18T21:01:59.820Z,10.63
2023-11-18T21:04:26.620Z,10.34
2023-11-18T21:06:53.123Z,10.60
2023-11-18T21:09:19.582Z,10.72
2023-11-18T21:11:46.008Z,10.69
2023-11-18T21:14:12.413Z,10.48
2023-11-18T21:16:38.883Z,10.60
2023-11-18T21:19:05.533Z,10.70
2023-11-18T21:21:32.036Z,10.61
2023-11-18T21:23:58.511Z,10.44
2023-11-18T21:26:24.935Z,10.40
2023-11-18T21:28:51.359Z,10.66
2023-11-18T21:31:17.962Z,10.79
2023-11-18T21:33:47.496Z,10.93
2023-11-18T21:36:13.941Z,10.26
2023-11-18T21:38:40.414Z,9.67
2023-11-18T21:41:07.019Z,9.32
2023-11-18T21:43:33.429Z,9.34
2023-11-18T21:45:59.957Z,9.66
2023-11-18T21:48:26.445Z,9.99
2023-11-18T21:50:53.031Z,9.78
2023-11-18T21:53:19.470Z,9.62
2023-11-18T21:55:47.077Z,9.63
2023-11-18T21:58:13.500Z,9.29
2023-11-18T22:00:45.364Z,9.45
2023-11-18T22:03:12.349Z,9.73
2023-11-18T22:05:39.090Z,9.16
2023-11-18T22:08:05.716Z,8.93
2023-11-18T22:10:32.281Z,9.02
2023-11-18T22:12:59.006Z,9.54
2023-11-18T22:15:25.610Z,9.47
2023-11-18T22:17:52.232Z,9.76
2023-11-18T22:20:19.131Z,9.92
2023-11-18T22:22:45.720Z,10.07
2023-11-18T22:25:12.137Z,9.92
2023-11-18T22:27:38.643Z,10.12
2023-11-18T22:30:05.168Z,10.19
2023-11-18T22:32:31.674Z,10.01
2023-11-18T22:34:58.230Z,10.21
2023-11-18T22:37:24.813Z,10.16
2023-11-18T22:39:51.195Z,10.03
2023-11-18T22:42:17.640Z,9.83
2023-11-18T22:44:44.173Z,10.12
2023-11-18T22:47:10.664Z,9.96
2023-11-18T22:49:37.196Z,10.09
2023-11-18T22:52:03.643Z,9.76
2023-11-18T22:54:30.060Z,9.27
2023-11-18T22:56:56.629Z,9.31
2023-11-18T22:59:23.075Z,9.15
2023-11-18T23:01:49.701Z,9.52
2023-11-18T23:04:16.309Z,9.71
2023-11-18T23:06:43.065Z,10.06
2023-11-18T23:09:09.491Z,10.15
2023-11-18T23:11:35.920Z,10.38
2023-11-18T23:14:02.353Z,10.58
2023-11-18T23:16:28.779Z,10.57
2023-11-18T23:18:55.476Z,10.57
2023-11-18T23:21:21.978Z,10.69
2023-11-18T23:23:48.526Z,10.54
2023-11-18T23:26:15.134Z,10.58
2023-11-18T23:28:41.699Z,10.57
2023-11-18T23:31:08.168Z,10.17
2023-11-18T23:33:34.970Z,10.01
2023-11-18T23:36:01.559Z,10.24
2023-11-18T23:38:28.068Z,10.00
2023-11-18T23:40:54.470Z,10.14
2023-11-18T23:43:21.068Z,10.50
2023-11-18T23:45:47.524Z,10.66
2023-11-18T23:48:14.010Z,10.37
2023-11-18T23:50:40.490Z,10.09
2023-11-18T23:53:06.904Z,10.06
2023-11-18T23:55:33.349Z,10.34
2023-11-18T23:57:59.772Z,9.97
